Time;durP1;ratioP1;P1;durP2;ratioP2;P2;SDS_P1;SDS_P2;PMS_P1;PMS_P2;Temp;Humidity;BMP_temperature;BMP_pressure;BME280_temperature;BME280_humidity;BME280_pressure;Samples;Min_cycle;Max_cycle;Signal;HPM_P1;HPM_P2
2021/11/15 00:01:00;;;;;;;12.93;11.00;;;;;;;;;;5054504;28;20272;-91
2021/11/15 00:03:35;;;;;;;13.20;11.30;;;;;;;;;;5057109;28;20185;-91
2021/11/15 00:06:01;;;;;;;13.33;11.40;;;;;;;;;;5056612;28;20172;-91
2021/11/15 00:08:45;;;;;;;15.90;12.17;;;;;;;;;;5054903;28;20189;-91
2021/11/15 00:11:17;;;;;;;15.07;11.70;;;;;;;;;;5056066;28;20181;-91
2021/11/15 00:16:50;;;;;;;13.53;11.43;;;;;;;;;;5071045;28;20684;-92
2021/11/15 00:19:25;;;;;;;14.10;12.57;;;;;;;;;;5058519;28;20189;-91
2021/11/15 00:22:07;;;;;;;13.40;12.10;;;;;;;;;;5061198;28;20183;-91
2021/11/15 00:24:42;;;;;;;12.57;11.27;;;;;;;;;;5067460;28;20283;-91
2021/11/15 00:27:14;;;;;;;13.87;12.03;;;;;;;;;;5047716;28;20291;-92
2021/11/15 00:29:48;;;;;;;13.10;10.93;;;;;;;;;;5068100;28;20195;-91
2021/11/15 00:32:30;;;;;;;13.83;11.53;;;;;;;;;;5061854;28;20275;-90
2021/11/15 00:35:34;;;;;;;14.87;11.67;;;;;;;;;;5050828;28;20216;-92
2021/11/15 00:38:14;;;;;;;15.53;11.67;;;;;;;;;;5052761;28;20207;-92
2021/11/15 00:40:50;;;;;;;13.83;11.10;;;;;;;;;;5052318;28;20196;-90
2021/11/15 00:43:18;;;;;;;13.27;11.83;;;;;;;;;;5056641;28;20192;-91
2021/11/15 00:45:50;;;;;;;13.60;11.90;;;;;;;;;;5059789;28;20202;-90
2021/11/15 00:48:37;;;;;;;12.70;10.93;;;;;;;;;;5048102;28;20217;-91
2021/11/15 00:51:13;;;;;;;12.73;11.43;;;;;;;;;;5036130;28;20189;-92
2021/11/15 00:54:05;;;;;;;13.17;11.57;;;;;;;;;;5030721;28;20188;-91
2021/11/15 00:56:39;;;;;;;13.63;11.70;;;;;;;;;;5031801;28;20288;-91
2021/11/15 00:59:32;;;;;;;14.97;12.07;;;;;;;;;;5039078;28;20226;-90
2021/11/15 01:02:20;;;;;;;14.57;11.60;;;;;;;;;;5036090;28;20193;-91
2021/11/15 01:05:08;;;;;;;13.70;11.93;;;;;;;;;;5022886;28;20568;-92
2021/11/15 01:07:44;;;;;;;15.73;12.83;;;;;;;;;;5033998;28;20197;-91
2021/11/15 01:10:12;;;;;;;12.27;11.07;;;;;;;;;;5033200;28;20178;-92
2021/11/15 01:13:01;;;;;;;13.83;12.07;;;;;;;;;;5041476;28;20212;-90
2021/11/15 01:15:44;;;;;;;15.03;12.03;;;;;;;;;;5031003;28;20221;-91
2021/11/15 01:18:33;;;;;;;;;;;;;;;;;;;;;
2021/11/15 01:21:02;;;;;;;15.60;11.67;;;;;;;;;;5055621;28;20245;-90
2021/11/15 01:23:41;;;;;;;14.40;12.47;;;;;;;;;;5034244;28;20205;-93
2021/11/15 01:26:15;;;;;;;15.50;12.37;;;;;;;;;;5019687;28;20302;-91
2021/11/15 01:28:54;;;;;;;15.80;12.60;;;;;;;;;;4991033;28;20278;-91
2021/11/15 01:31:23;;;;;;;12.63;11.27;;;;;;;;;;5003292;28;20270;-92
2021/11/15 01:34:07;;;;;;;;;;;;;;;;;;;;;
2021/11/15 01:36:37;;;;;;;14.03;12.50;;;;;;;;;;5003678;28;20776;-90
2021/11/15 01:42:03;;;;;;;14.77;12.70;;;;;;;;;;5006834;28;20210;-91
2021/11/15 01:44:37;;;;;;;13.87;12.37;;;;;;;;;;4995939;28;20207;-92
2021/11/15 01:47:19;;;;;;;13.33;11.70;;;;;;;;;;5009958;28;20277;-90
2021/11/15 01:50:03;;;;;;;15.43;13.00;;;;;;;;;;5022689;28;20182;-90
2021/11/15 01:55:31;;;;;;;14.57;12.63;;;;;;;;;;5056672;28;20212;-90
2021/11/15 01:58:10;;;;;;;15.37;12.00;;;;;;;;;;5030961;28;20591;-92
2021/11/15 02:00:57;;;;;;;14.23;12.53;;;;;;;;;;5036806;28;20181;-91
2021/11/15 02:03:33;;;;;;;13.83;11.73;;;;;;;;;;5032366;28;20193;-91
2021/11/15 02:06:10;;;;;;;15.93;13.07;;;;;;;;;;5023637;28;20280;-91
2021/11/15 02:08:39;;;;;;;14.63;12.87;;;;;;;;;;5026312;28;20667;-90
2021/11/15 02:14:01;;;;;;;13.40;12.10;;;;;;;;;;5048253;28;20215;-91
2021/11/15 02:16:34;;;;;;;15.53;13.53;;;;;;;;;;5044534;28;20238;-91
2021/11/15 02:19:13;;;;;;;14.90;13.13;;;;;;;;;;5043479;28;20189;-92
2021/11/15 02:24:42;;;;;;;14.47;13.00;;;;;;;;;;5035517;28;20192;-90
2021/11/15 02:27:34;;;;;;;;;;;;;;;;;;;;;
2021/11/15 02:33:27;;;;;;;13.40;12.00;;;;;;;;;;5034517;28;20266;-91
2021/11/15 02:36:04;;;;;;;14.47;12.70;;;;;;;;;;5031870;28;20205;-91
2021/11/15 02:38:34;;;;;;;15.63;14.03;;;;;;;;;;5033275;28;20188;-92
2021/11/15 02:41:09;;;;;;;14.20;12.70;;;;;;;;;;5034190;28;20664;-92
2021/11/15 02:43:47;;;;;;;13.33;11.87;;;;;;;;;;5037418;28;20211;-93
2021/11/15 02:46:16;;;;;;;13.17;11.77;;;;;;;;;;5023430;28;20190;-91
2021/11/15 02:48:42;;;;;;;14.10;12.60;;;;;;;;;;5054325;28;20235;-93
2021/11/15 02:51:14;;;;;;;13.80;12.30;;;;;;;;;;5062776;28;20283;-92
2021/11/15 02:53:43;;;;;;;15.00;12.60;;;;;;;;;;5053735;28;20181;-92
2021/11/15 02:56:29;;;;;;;14.57;13.07;;;;;;;;;;5054863;28;20185;-91
2021/11/15 02:58:55;;;;;;;15.10;13.20;;;;;;;;;;5067216;28;20195;-92
2021/11/15 03:01:22;;;;;;;14.03;12.47;;;;;;;;;;5052518;28;20200;-91
2021/11/15 03:03:51;;;;;;;16.60;12.80;;;;;;;;;;5056349;28;20184;-92
2021/11/15 03:06:25;;;;;;;16.40;14.47;;;;;;;;;;5057648;28;20204;-92
2021/11/15 03:08:53;;;;;;;15.43;12.60;;;;;;;;;;5045609;28;20207;-91
2021/11/15 03:11:19;;;;;;;16.00;13.73;;;;;;;;;;5053061;28;20176;-91
2021/11/15 03:13:50;;;;;;;15.77;12.60;;;;;;;;;;5061491;28;20180;-91
2021/11/15 03:16:16;;;;;;;14.53;12.30;;;;;;;;;;5059838;28;20211;-90
2021/11/15 03:18:43;;;;;;;15.70;13.60;;;;;;;;;;5057920;28;20176;-91
2021/11/15 03:21:13;;;;;;;15.00;13.20;;;;;;;;;;5049686;28;20175;-90
2021/11/15 03:23:41;;;;;;;15.17;13.40;;;;;;;;;;5052081;28;20227;-92
2021/11/15 03:26:10;;;;;;;15.23;13.67;;;;;;;;;;5044502;28;20189;-91
2021/11/15 03:28:38;;;;;;;16.80;13.73;;;;;;;;;;5057621;28;20189;-91
2021/11/15 03:31:33;;;;;;;17.93;13.77;;;;;;;;;;5042652;28;20193;-91
2021/11/15 03:34:02;;;;;;;17.23;15.20;;;;;;;;;;5051047;28;20189;-93
2021/11/15 03:36:29;;;;;;;15.47;13.70;;;;;;;;;;5046217;28;20215;-91
2021/11/15 03:39:00;;;;;;;17.37;14.10;;;;;;;;;;5055416;28;20196;-92
2021/11/15 03:41:28;;;;;;;15.03;13.47;;;;;;;;;;5052011;28;20211;-92
2021/11/15 03:43:59;;;;;;;14.63;13.03;;;;;;;;;;5046266;28;20204;-92
2021/11/15 03:46:28;;;;;;;16.60;14.07;;;;;;;;;;5050187;28;20629;-91
2021/11/15 03:49:02;;;;;;;16.50;14.50;;;;;;;;;;5052456;28;20248;-92
2021/11/15 03:51:32;;;;;;;16.17;14.23;;;;;;;;;;5041016;28;20286;-91
2021/11/15 03:54:01;;;;;;;17.10;14.23;;;;;;;;;;5056877;28;20188;-91
2021/11/15 03:56:28;;;;;;;17.33;14.33;;;;;;;;;;5043760;28;20211;-92
2021/11/15 03:58:54;;;;;;;16.47;14.43;;;;;;;;;;5062737;28;20176;-92
2021/11/15 04:01:32;;;;;;;18.20;14.67;;;;;;;;;;5051957;28;20200;-93
2021/11/15 04:04:04;;;;;;;15.83;13.93;;;;;;;;;;5057672;28;20577;-91
2021/11/15 04:06:38;;;;;;;16.43;13.53;;;;;;;;;;5054043;28;20537;-93
2021/11/15 04:09:14;;;;;;;16.67;13.27;;;;;;;;;;5054447;28;20549;-92
2021/11/15 04:11:43;;;;;;;18.13;14.53;;;;;;;;;;5043260;28;20190;-92
2021/11/15 04:14:16;;;;;;;16.40;13.53;;;;;;;;;;5054630;28;20246;-91
2021/11/15 04:16:46;;;;;;;18.53;16.63;;;;;;;;;;5056403;28;20199;-91
2021/11/15 04:19:17;;;;;;;17.87;14.60;;;;;;;;;;5057128;28;20176;-91
2021/11/15 04:21:45;;;;;;;17.63;13.80;;;;;;;;;;5057451;28;20185;-91
2021/11/15 04:24:12;;;;;;;18.67;15.03;;;;;;;;;;5068276;28;20191;-91
2021/11/15 04:26:41;;;;;;;17.43;14.67;;;;;;;;;;5043980;28;20196;-91
2021/11/15 04:29:10;;;;;;;18.60;14.30;;;;;;;;;;5059614;28;20303;-90
2021/11/15 04:31:36;;;;;;;18.43;16.47;;;;;;;;;;5050849;28;20215;-92
2021/11/15 04:34:02;;;;;;;18.13;14.50;;;;;;;;;;5052798;28;20181;-92
2021/11/15 04:36:33;;;;;;;14.83;12.87;;;;;;;;;;5040959;28;20258;-93
2021/11/15 04:39:02;;;;;;;16.40;14.03;;;;;;;;;;5057327;28;20203;-91
2021/11/15 04:41:28;;;;;;;18.93;14.60;;;;;;;;;;5053022;28;20183;-91
2021/11/15 04:43:56;;;;;;;17.60;14.50;;;;;;;;;;5051644;28;20313;-92
2021/11/15 04:46:23;;;;;;;16.83;14.57;;;;;;;;;;5048488;28;20691;-92
2021/11/15 04:48:49;;;;;;;17.00;15.03;;;;;;;;;;5048260;28;20225;-93
2021/11/15 04:51:15;;;;;;;17.40;14.77;;;;;;;;;;5040102;28;20176;-92
2021/11/15 04:53:41;;;;;;;20.70;14.73;;;;;;;;;;5062986;28;20187;-91
2021/11/15 04:56:08;;;;;;;16.20;13.17;;;;;;;;;;5052288;28;20580;-91
2021/11/15 04:58:40;;;;;;;17.87;14.97;;;;;;;;;;5057735;28;20189;-92
2021/11/15 05:01:07;;;;;;;18.33;14.53;;;;;;;;;;5054750;28;20165;-91
2021/11/15 05:03:36;;;;;;;20.13;15.40;;;;;;;;;;5062461;28;20361;-91
2021/11/15 05:06:11;;;;;;;18.13;14.53;;;;;;;;;;5049597;28;20185;-92
2021/11/15 05:08:42;;;;;;;17.27;14.67;;;;;;;;;;5069508;28;20306;-91
2021/11/15 05:11:14;;;;;;;18.77;14.97;;;;;;;;;;5053425;28;20184;-91
2021/11/15 05:13:48;;;;;;;17.27;14.87;;;;;;;;;;5056586;28;20281;-91
2021/11/15 05:16:15;;;;;;;17.13;14.87;;;;;;;;;;5051754;28;20196;-92
2021/11/15 05:18:43;;;;;;;17.40;15.13;;;;;;;;;;5070345;28;20502;-91
2021/11/15 05:21:12;;;;;;;19.93;16.23;;;;;;;;;;5067885;28;20185;-90
2021/11/15 05:23:41;;;;;;;17.43;14.83;;;;;;;;;;5066344;28;20185;-91
2021/11/15 05:26:12;;;;;;;20.07;15.83;;;;;;;;;;5055823;28;20184;-92
2021/11/15 05:28:41;;;;;;;21.30;14.43;;;;;;;;;;5056198;28;20248;-91
2021/11/15 05:31:08;;;;;;;18.67;15.67;;;;;;;;;;5054427;28;20184;-92
2021/11/15 05:33:34;;;;;;;22.00;15.30;;;;;;;;;;5049641;28;20326;-91
2021/11/15 05:36:04;;;;;;;22.10;15.57;;;;;;;;;;5058033;28;20241;-91
2021/11/15 05:38:30;;;;;;;19.90;15.97;;;;;;;;;;5066892;28;20207;-91
2021/11/15 05:40:58;;;;;;;20.00;17.37;;;;;;;;;;5055818;28;20180;-92
2021/11/15 05:43:25;;;;;;;20.37;15.50;;;;;;;;;;5059666;28;20602;-90
2021/11/15 05:45:51;;;;;;;19.07;15.93;;;;;;;;;;5047567;28;20181;-90
2021/11/15 05:48:17;;;;;;;20.37;15.93;;;;;;;;;;5065995;28;20598;-88
2021/11/15 05:50:46;;;;;;;22.02;16.90;;;;;;;;;;5047770;28;20461;-91
2021/11/15 05:53:15;;;;;;;20.23;15.27;;;;;;;;;;5060422;28;20172;-90
2021/11/15 05:55:44;;;;;;;18.67;15.07;;;;;;;;;;5050059;28;20242;-91
2021/11/15 05:58:13;;;;;;;19.40;15.23;;;;;;;;;;5063582;28;20599;-93
2021/11/15 06:00:41;;;;;;;20.13;15.60;;;;;;;;;;5056016;28;20185;-91
2021/11/15 06:03:07;;;;;;;17.83;14.33;;;;;;;;;;5050227;28;20233;-91
2021/11/15 06:05:36;;;;;;;18.67;15.07;;;;;;;;;;5061563;28;20787;-91
2021/11/15 06:08:03;;;;;;;19.00;15.23;;;;;;;;;;5065043;28;20219;-92
2021/11/15 06:10:36;;;;;;;18.93;15.40;;;;;;;;;;5062036;28;20177;-91
2021/11/15 06:13:06;;;;;;;18.87;15.90;;;;;;;;;;5073630;28;20176;-91
2021/11/15 06:15:37;;;;;;;17.00;13.80;;;;;;;;;;5048656;28;20189;-91
2021/11/15 06:18:04;;;;;;;16.90;14.37;;;;;;;;;;5061958;28;20198;-92
2021/11/15 06:20:39;;;;;;;19.53;15.57;;;;;;;;;;5060728;28;20596;-91
2021/11/15 06:23:05;;;;;;;16.67;14.57;;;;;;;;;;5061169;28;20183;-91
2021/11/15 06:25:37;;;;;;;17.50;15.13;;;;;;;;;;5049999;28;20244;-91
2021/11/15 06:28:03;;;;;;;17.47;14.80;;;;;;;;;;5053881;28;20180;-92
2021/11/15 06:30:42;;;;;;;19.67;15.43;;;;;;;;;;5051926;28;20477;-92
2021/11/15 06:33:08;;;;;;;16.70;14.17;;;;;;;;;;5054889;28;20184;-92
2021/11/15 06:35:34;;;;;;;17.53;14.77;;;;;;;;;;5040665;28;20208;-93
2021/11/15 06:38:06;;;;;;;20.90;15.00;;;;;;;;;;5055210;28;20187;-91
2021/11/15 06:40:33;;;;;;;18.10;14.80;;;;;;;;;;5079337;28;20230;-92
2021/11/15 06:43:02;;;;;;;19.92;17.85;;;;;;;;;;5063944;28;20426;-94
2021/11/15 06:45:32;;;;;;;17.20;15.40;;;;;;;;;;5058891;28;20193;-93
2021/11/15 06:48:07;;;;;;;18.33;15.60;;;;;;;;;;5055743;28;20302;-92
2021/11/15 06:50:33;;;;;;;17.90;15.77;;;;;;;;;;5053292;28;20211;-93
2021/11/15 06:53:02;;;;;;;16.67;14.40;;;;;;;;;;5070630;28;20198;-92
2021/11/15 06:55:31;;;;;;;20.30;14.67;;;;;;;;;;5082972;28;20207;-93
2021/11/15 06:58:00;;;;;;;19.20;15.43;;;;;;;;;;5083108;28;20274;-93
2021/11/15 07:00:27;;;;;;;18.30;14.73;;;;;;;;;;5069260;28;20248;-91
2021/11/15 07:02:54;;;;;;;17.83;15.27;;;;;;;;;;5054531;28;20239;-93
2021/11/15 07:05:24;;;;;;;16.13;13.73;;;;;;;;;;5073839;28;20197;-91
2021/11/15 07:07:57;;;;;;;17.47;15.53;;;;;;;;;;5076116;28;20214;-93
2021/11/15 07:10:24;;;;;;;20.10;15.17;;;;;;;;;;5062926;28;20183;-92
2021/11/15 07:12:53;;;;;;;19.30;15.10;;;;;;;;;;5047316;28;20180;-92
2021/11/15 07:15:20;;;;;;;16.87;14.67;;;;;;;;;;5052907;28;20196;-92
2021/11/15 07:17:46;;;;;;;18.60;14.70;;;;;;;;;;5050711;28;20286;-92
2021/11/15 07:20:23;;;;;;;20.37;16.30;;;;;;;;;;5052326;28;20180;-92
2021/11/15 07:22:50;;;;;;;19.40;15.23;;;;;;;;;;5053351;28;20206;-92
2021/11/15 07:25:27;;;;;;;;;;;;;;;;;;;;;
2021/11/15 07:27:56;;;;;;;16.90;14.07;;;;;;;;;;5083934;28;20239;-94
2021/11/15 07:30:25;;;;;;;17.47;14.43;;;;;;;;;;5072574;28;20189;-92
2021/11/15 07:33:02;;;;;;;18.60;15.03;;;;;;;;;;5057345;28;20207;-91
2021/11/15 07:35:30;;;;;;;19.30;15.47;;;;;;;;;;5074578;28;20220;-94
2021/11/15 07:38:20;;;;;;;19.13;14.67;;;;;;;;;;5053481;28;20181;-93
2021/11/15 07:40:46;;;;;;;22.43;15.80;;;;;;;;;;5066984;28;20240;-92
2021/11/15 07:43:13;;;;;;;20.10;15.63;;;;;;;;;;5081210;28;20305;-93
2021/11/15 07:45:39;;;;;;;20.03;15.33;;;;;;;;;;5058329;28;20177;-94
2021/11/15 07:48:07;;;;;;;21.40;16.03;;;;;;;;;;5065971;28;20295;-92
2021/11/15 07:50:35;;;;;;;22.13;15.93;;;;;;;;;;5053090;28;20525;-95
2021/11/15 07:53:01;;;;;;;19.90;15.30;;;;;;;;;;5058610;28;20587;-91
2021/11/15 07:55:27;;;;;;;22.37;15.43;;;;;;;;;;5051249;28;20212;-91
2021/11/15 07:57:56;;;;;;;21.70;15.30;;;;;;;;;;5046885;28;20237;-93
2021/11/15 08:00:24;;;;;;;19.30;15.47;;;;;;;;;;5043017;28;20245;-93
2021/11/15 08:02:54;;;;;;;19.50;14.50;;;;;;;;;;5058370;28;20244;-94
2021/11/15 08:05:28;;;;;;;21.57;14.70;;;;;;;;;;5045498;28;20276;-92
2021/11/15 08:07:54;;;;;;;22.30;15.03;;;;;;;;;;5067863;28;20253;-86
2021/11/15 08:10:26;;;;;;;20.47;15.43;;;;;;;;;;5063791;28;20197;-87
2021/11/15 08:12:57;;;;;;;22.90;17.30;;;;;;;;;;5052932;28;20190;-88
2021/11/15 08:15:29;;;;;;;19.97;15.63;;;;;;;;;;5062456;28;20218;-87
2021/11/15 08:17:57;;;;;;;22.07;16.33;;;;;;;;;;5059321;28;20803;-88
2021/11/15 08:20:31;;;;;;;21.50;15.37;;;;;;;;;;5079697;28;20181;-87
2021/11/15 08:23:04;;;;;;;23.47;17.40;;;;;;;;;;5066174;28;20209;-87
2021/11/15 08:25:52;;;;;;;27.60;16.93;;;;;;;;;;5080216;28;20206;-87
2021/11/15 08:28:23;;;;;;;23.30;16.73;;;;;;;;;;5049674;28;20208;-87
2021/11/15 08:30:52;;;;;;;24.03;16.27;;;;;;;;;;5044361;28;20254;-87
2021/11/15 08:33:21;;;;;;;23.03;16.43;;;;;;;;;;5065797;28;20209;-87
2021/11/15 08:35:48;;;;;;;24.33;17.80;;;;;;;;;;5080214;28;20207;-87
2021/11/15 08:38:20;;;;;;;23.93;16.50;;;;;;;;;;5056865;28;20211;-87
2021/11/15 08:40:51;;;;;;;24.17;16.93;;;;;;;;;;5057330;28;20264;-87
2021/11/15 08:43:22;;;;;;;25.83;18.33;;;;;;;;;;5048670;28;20226;-84
2021/11/15 08:45:48;;;;;;;21.83;17.03;;;;;;;;;;5054279;28;20264;-84
2021/11/15 08:48:15;;;;;;;27.10;19.90;;;;;;;;;;5051606;28;20247;-84
2021/11/15 08:50:41;;;;;;;28.17;19.67;;;;;;;;;;5048524;28;20201;-84
2021/11/15 08:53:07;;;;;;;29.00;18.90;;;;;;;;;;5043190;28;20188;-84
2021/11/15 08:55:34;;;;;;;24.90;17.43;;;;;;;;;;5045427;28;20200;-84
2021/11/15 08:58:00;;;;;;;23.53;16.50;;;;;;;;;;5061915;28;20204;-84
2021/11/15 09:00:27;;;;;;;25.27;18.90;;;;;;;;;;5042690;28;20588;-84
2021/11/15 09:02:53;;;;;;;25.53;18.23;;;;;;;;;;5043414;28;20250;-84
2021/11/15 09:05:20;;;;;;;27.00;18.63;;;;;;;;;;5041140;28;20189;-84
2021/11/15 09:07:47;;;;;;;27.60;19.67;;;;;;;;;;5071375;28;20191;-85
2021/11/15 09:10:14;;;;;;;27.50;18.17;;;;;;;;;;5078515;28;20172;-83
2021/11/15 09:12:41;;;;;;;27.83;18.90;;;;;;;;;;5053502;28;20276;-85
2021/11/15 09:15:09;;;;;;;26.70;18.87;;;;;;;;;;5051281;28;20524;-83
2021/11/15 09:17:36;;;;;;;24.53;17.27;;;;;;;;;;5042027;28;20173;-83
2021/11/15 09:20:03;;;;;;;30.13;19.77;;;;;;;;;;5042172;28;20235;-83
2021/11/15 09:22:29;;;;;;;23.73;18.57;;;;;;;;;;5051720;28;20209;-84
2021/11/15 09:24:55;;;;;;;25.97;19.03;;;;;;;;;;5044480;28;20177;-84
2021/11/15 09:27:22;;;;;;;26.63;19.83;;;;;;;;;;5043814;28;20181;-85
2021/11/15 10:10:44;;;;;;;20.23;16.30;;;;;;;;;;4758693;27;8239760;-52
2021/11/15 10:13:18;;;;;;;20.10;16.00;;;;;;;;;;5030192;28;20240;-53
2021/11/15 10:15:47;;;;;;;21.90;15.17;;;;;;;;;;5026249;28;20239;-53
2021/11/15 10:18:14;;;;;;;17.23;13.80;;;;;;;;;;5024770;28;20691;-53
2021/11/15 10:20:48;;;;;;;21.47;15.47;;;;;;;;;;5052391;28;20184;-53
2021/11/15 10:23:34;;;;;;;20.67;14.23;;;;;;;;;;5039344;28;20228;-53
2021/11/15 10:26:07;;;;;;;17.90;13.83;;;;;;;;;;5012452;28;20216;-52
2021/11/15 10:28:34;;;;;;;18.50;12.97;;;;;;;;;;5050413;28;20173;-53
2021/11/15 10:31:00;;;;;;;18.87;13.80;;;;;;;;;;5030634;28;20232;-53
2021/11/15 10:33:40;;;;;;;16.80;12.93;;;;;;;;;;5030801;28;20351;-53
2021/11/15 10:36:06;;;;;;;17.60;13.03;;;;;;;;;;5042937;28;20189;-53
2021/11/15 10:38:46;;;;;;;16.73;12.00;;;;;;;;;;5022151;28;20670;-53
2021/11/15 10:41:14;;;;;;;15.47;12.17;;;;;;;;;;5035153;28;20189;-54
2021/11/15 10:43:40;;;;;;;17.37;11.97;;;;;;;;;;5031169;28;20194;-53
2021/11/15 10:46:06;;;;;;;15.40;12.07;;;;;;;;;;5033448;28;20579;-53
2021/11/15 10:48:45;;;;;;;16.90;13.03;;;;;;;;;;5026184;28;20200;-53
2021/11/15 10:51:14;;;;;;;17.37;12.20;;;;;;;;;;5017390;28;20262;-54
2021/11/15 10:53:54;;;;;;;19.90;13.10;;;;;;;;;;5004317;28;20181;-53
2021/11/15 10:56:31;;;;;;;15.33;11.73;;;;;;;;;;5002494;28;20210;-55
2021/11/15 10:58:57;;;;;;;15.47;11.50;;;;;;;;;;5004452;28;20653;-53
2021/11/15 11:01:32;;;;;;;16.17;12.20;;;;;;;;;;4981451;28;20202;-53
2021/11/15 11:04:11;;;;;;;17.07;12.13;;;;;;;;;;5004557;28;20170;-53
2021/11/15 11:06:56;;;;;;;13.97;11.33;;;;;;;;;;4998690;28;20273;-53
2021/11/15 11:09:39;;;;;;;13.50;11.63;;;;;;;;;;5005977;28;20210;-53
2021/11/15 11:12:14;;;;;;;15.77;10.57;;;;;;;;;;4987254;28;20246;-52
2021/11/15 11:14:43;;;;;;;15.33;12.00;;;;;;;;;;4988924;28;20216;-54
2021/11/15 11:17:09;;;;;;;14.10;11.57;;;;;;;;;;5005092;28;20626;-54
2021/11/15 11:20:00;;;;;;;14.60;11.77;;;;;;;;;;5001079;28;20185;-53
2021/11/15 11:25:24;;;;;;;14.47;11.80;;;;;;;;;;4978345;28;20198;-53
2021/11/15 11:27:51;;;;;;;15.70;12.13;;;;;;;;;;5010393;28;20174;-54
2021/11/15 11:30:17;;;;;;;17.53;12.37;;;;;;;;;;4993065;28;20190;-54
2021/11/15 11:32:46;;;;;;;15.40;11.73;;;;;;;;;;4986335;28;20241;-54
2021/11/15 11:35:12;;;;;;;15.27;12.77;;;;;;;;;;4999369;28;20210;-52
2021/11/15 11:37:40;;;;;;;17.60;12.87;;;;;;;;;;5007861;28;20261;-53
2021/11/15 11:40:07;;;;;;;16.87;12.10;;;;;;;;;;4993154;28;20170;-53
2021/11/15 11:42:33;;;;;;;16.77;12.57;;;;;;;;;;4985663;28;20185;-54
2021/11/15 11:45:00;;;;;;;16.40;13.23;;;;;;;;;;4977249;28;20261;-53
2021/11/15 11:47:29;;;;;;;16.03;12.93;;;;;;;;;;4985275;28;20723;-53
2021/11/15 11:49:59;;;;;;;15.73;13.70;;;;;;;;;;5010204;28;20249;-53
2021/11/15 11:52:29;;;;;;;19.40;13.33;;;;;;;;;;4991291;28;20652;-53
2021/11/15 11:54:55;;;;;;;16.90;13.07;;;;;;;;;;4985192;28;20210;-53
2021/11/15 11:57:21;;;;;;;13.83;12.10;;;;;;;;;;5009965;28;20205;-53
2021/11/15 11:59:47;;;;;;;23.30;12.37;;;;;;;;;;5005382;28;20597;-53
2021/11/15 12:02:19;;;;;;;17.47;12.87;;;;;;;;;;5002147;28;20197;-53
2021/11/15 12:05:02;;;;;;;16.50;12.77;;;;;;;;;;4985140;28;20570;-54
2021/11/15 12:07:30;;;;;;;17.90;13.47;;;;;;;;;;4983831;28;20179;-53
2021/11/15 12:09:57;;;;;;;18.20;14.13;;;;;;;;;;5005133;28;20747;-54
2021/11/15 12:12:24;;;;;;;16.00;12.70;;;;;;;;;;4975908;28;20743;-53
2021/11/15 12:14:50;;;;;;;15.00;11.77;;;;;;;;;;4987927;28;20739;-53
2021/11/15 12:17:18;;;;;;;19.33;12.30;;;;;;;;;;5011164;28;20178;-54
2021/11/15 12:19:53;;;;;;;17.10;14.13;;;;;;;;;;5001332;28;20171;-55
2021/11/15 12:22:27;;;;;;;17.20;12.43;;;;;;;;;;5006834;28;20585;-54
2021/11/15 12:25:08;;;;;;;16.67;12.77;;;;;;;;;;5011070;28;20525;-54
2021/11/15 12:27:37;;;;;;;15.27;11.67;;;;;;;;;;5007862;28;20301;-54
2021/11/15 12:30:22;;;;;;;20.07;12.43;;;;;;;;;;5009108;28;20186;-54
2021/11/15 12:33:25;;;;;;;19.40;12.17;;;;;;;;;;5009479;28;20183;-55
2021/11/15 12:35:56;;;;;;;16.20;11.97;;;;;;;;;;4983975;28;20892;-54
2021/11/15 12:38:38;;;;;;;14.70;11.20;;;;;;;;;;5006396;28;20182;-54
2021/11/15 12:41:05;;;;;;;13.63;11.53;;;;;;;;;;5005799;28;20186;-54
2021/11/15 12:43:31;;;;;;;15.07;11.27;;;;;;;;;;5010497;28;20261;-54
2021/11/15 12:46:11;;;;;;;12.97;10.73;;;;;;;;;;4988282;28;20185;-53
2021/11/15 12:48:40;;;;;;;14.37;10.20;;;;;;;;;;4977854;28;20193;-52
2021/11/15 12:51:10;;;;;;;14.67;10.53;;;;;;;;;;5007458;28;20210;-53
2021/11/15 12:53:40;;;;;;;12.17;9.73;;;;;;;;;;4993189;28;20600;-53
2021/11/15 12:56:06;;;;;;;12.70;10.00;;;;;;;;;;4987501;28;20211;-54
2021/11/15 12:58:32;;;;;;;12.67;9.80;;;;;;;;;;4989005;28;20641;-54
2021/11/15 13:00:58;;;;;;;14.03;9.97;;;;;;;;;;4973459;28;20202;-53
2021/11/15 13:03:25;;;;;;;12.97;10.00;;;;;;;;;;5006230;28;20179;-54
2021/11/15 13:05:52;;;;;;;12.07;9.33;;;;;;;;;;5009015;28;20545;-53
2021/11/15 13:08:18;;;;;;;14.80;9.47;;;;;;;;;;5003716;28;20254;-53
2021/11/15 13:10:48;;;;;;;11.47;8.83;;;;;;;;;;4971820;28;20221;-53
2021/11/15 13:13:15;;;;;;;13.63;9.03;;;;;;;;;;4989947;28;20179;-53
2021/11/15 13:15:42;;;;;;;14.20;9.60;;;;;;;;;;4984405;28;20654;-53
2021/11/15 13:18:11;;;;;;;16.50;9.90;;;;;;;;;;4987781;28;20190;-53
2021/11/15 13:20:37;;;;;;;12.33;9.83;;;;;;;;;;4966403;28;20235;-53
2021/11/15 13:23:04;;;;;;;13.80;8.93;;;;;;;;;;4970836;28;20235;-53
2021/11/15 13:25:30;;;;;;;12.77;9.70;;;;;;;;;;4975510;28;20568;-53
2021/11/15 13:27:58;;;;;;;12.33;9.40;;;;;;;;;;4989945;28;20187;-54
2021/11/15 13:30:25;;;;;;;15.20;10.10;;;;;;;;;;4983024;28;20223;-53
2021/11/15 13:32:53;;;;;;;12.70;9.83;;;;;;;;;;4963319;28;20571;-53
2021/11/15 13:35:19;;;;;;;13.50;9.57;;;;;;;;;;4978650;28;20195;-53
2021/11/15 13:37:46;;;;;;;15.10;9.33;;;;;;;;;;4989731;28;20175;-53
2021/11/15 13:40:12;;;;;;;13.13;9.70;;;;;;;;;;4985724;28;20203;-54
2021/11/15 13:42:38;;;;;;;12.60;9.90;;;;;;;;;;4982132;28;20222;-54
2021/11/15 13:45:05;;;;;;;13.70;10.00;;;;;;;;;;4989613;28;20167;-54
2021/11/15 13:47:31;;;;;;;14.83;9.83;;;;;;;;;;4988417;28;20211;-54
2021/11/15 13:50:01;;;;;;;14.87;10.13;;;;;;;;;;4988753;28;21605;-53
2021/11/15 13:52:28;;;;;;;12.03;9.23;;;;;;;;;;4964934;28;20190;-54
2021/11/15 13:54:54;;;;;;;15.07;11.63;;;;;;;;;;4980432;28;20226;-54
2021/11/15 13:57:24;;;;;;;15.37;9.60;;;;;;;;;;4961524;28;20211;-53
2021/11/15 13:59:51;;;;;;;12.60;9.10;;;;;;;;;;4971109;28;20628;-54
2021/11/15 14:02:17;;;;;;;15.53;10.77;;;;;;;;;;4988692;28;20183;-53
2021/11/15 14:04:43;;;;;;;13.60;10.00;;;;;;;;;;4988766;28;20179;-53
2021/11/15 14:07:10;;;;;;;15.33;10.27;;;;;;;;;;4974124;28;20186;-53
2021/11/15 14:09:36;;;;;;;15.17;9.90;;;;;;;;;;4968037;28;20328;-53
2021/11/15 14:12:03;;;;;;;13.07;9.33;;;;;;;;;;4999372;28;20579;-54
2021/11/15 14:14:29;;;;;;;10.93;7.93;;;;;;;;;;4961964;28;20186;-53
2021/11/15 14:16:55;;;;;;;12.17;9.37;;;;;;;;;;5008037;28;20236;-53
2021/11/15 14:19:24;;;;;;;11.80;8.90;;;;;;;;;;5016118;28;20213;-54
2021/11/15 14:21:51;;;;;;;12.23;8.77;;;;;;;;;;4990258;28;20535;-53
2021/11/15 14:24:18;;;;;;;14.20;9.30;;;;;;;;;;4991793;28;20258;-53
2021/11/15 14:26:44;;;;;;;14.00;9.30;;;;;;;;;;4988903;28;20167;-54
2021/11/15 14:29:10;;;;;;;11.63;8.90;;;;;;;;;;4971593;28;20579;-54
2021/11/15 14:31:37;;;;;;;15.57;10.10;;;;;;;;;;4995399;28;20389;-53
2021/11/15 14:34:03;;;;;;;12.55;10.20;;;;;;;;;;5001037;28;20393;-53
2021/11/15 14:36:30;;;;;;;10.93;9.33;;;;;;;;;;5004100;28;20667;-53
2021/11/15 14:38:56;;;;;;;10.83;8.70;;;;;;;;;;5006521;28;20670;-54
2021/11/15 14:41:22;;;;;;;11.50;9.00;;;;;;;;;;4989636;28;20168;-53
2021/11/15 14:43:48;;;;;;;10.30;8.73;;;;;;;;;;5003455;28;20166;-54
2021/11/15 14:46:14;;;;;;;10.40;7.97;;;;;;;;;;5003932;28;20471;-54
2021/11/15 14:48:40;;;;;;;11.77;8.10;;;;;;;;;;5012251;28;20217;-54
2021/11/15 14:51:06;;;;;;;12.37;8.77;;;;;;;;;;5006419;28;20238;-54
2021/11/15 14:53:33;;;;;;;11.57;8.60;;;;;;;;;;4993380;28;20240;-53
2021/11/15 14:56:02;;;;;;;11.83;8.70;;;;;;;;;;4990753;28;20206;-53
2021/11/15 14:58:28;;;;;;;13.90;9.47;;;;;;;;;;4991125;28;20174;-54
2021/11/15 15:00:55;;;;;;;13.77;9.67;;;;;;;;;;4981825;28;20181;-54
2021/11/15 15:03:21;;;;;;;13.80;9.40;;;;;;;;;;4986946;28;20198;-54
2021/11/15 15:05:47;;;;;;;13.90;9.40;;;;;;;;;;5002774;28;20182;-52
2021/11/15 15:08:15;;;;;;;15.50;9.33;;;;;;;;;;5009654;28;20171;-52
2021/11/15 15:10:55;;;;;;;12.93;9.40;;;;;;;;;;5008694;28;20354;-53
2021/11/15 15:13:24;;;;;;;16.47;9.03;;;;;;;;;;4992908;28;20187;-53
2021/11/15 15:15:50;;;;;;;12.07;9.77;;;;;;;;;;4980606;28;20249;-52
2021/11/15 15:18:20;;;;;;;12.50;9.33;;;;;;;;;;4995185;28;20258;-53
2021/11/15 15:20:46;;;;;;;11.87;9.53;;;;;;;;;;5011011;28;20177;-52
2021/11/15 15:23:12;;;;;;;13.43;10.17;;;;;;;;;;4986308;28;20177;-53
2021/11/15 15:25:39;;;;;;;15.13;10.23;;;;;;;;;;4976173;28;20193;-52
2021/11/15 15:28:06;;;;;;;14.87;10.37;;;;;;;;;;4987410;28;20513;-53
2021/11/15 15:30:36;;;;;;;15.80;9.97;;;;;;;;;;4993218;28;20739;-52
2021/11/15 15:33:05;;;;;;;15.50;10.70;;;;;;;;;;4978808;28;20202;-53
2021/11/15 15:35:32;;;;;;;15.50;10.47;;;;;;;;;;4991696;28;20201;-54
2021/11/15 15:37:58;;;;;;;15.33;10.97;;;;;;;;;;5012030;28;20178;-53
2021/11/15 15:40:25;;;;;;;13.20;10.30;;;;;;;;;;4994814;28;20217;-53
2021/11/15 15:42:53;;;;;;;12.93;10.13;;;;;;;;;;5003659;28;20190;-53
2021/11/15 15:45:20;;;;;;;16.50;10.93;;;;;;;;;;4979881;28;20178;-53